sensor_id;sensor_type;location;lat;lon;timestamp;P1;durP1;ratioP1;P2;durP2;ratioP2
6422;SDS011;3244;42.708;23.288;2023-04-06T00:02:17;9.20;;;8.30;;
6422;SDS011;3244;42.708;23.288;2023-04-06T00:04:43;7.47;;;6.88;;
6422;SDS011;3244;42.708;23.288;2023-04-06T00:07:10;8.40;;;7.60;;
6422;SDS011;3244;42.708;23.288;2023-04-06T00:09:37;9.65;;;7.45;;
6422;SDS011;3244;42.708;23.288;2023-04-06T00:12:04;8.05;;;7.45;;
6422;SDS011;3244;42.708;23.288;2023-04-06T00:14:31;7.80;;;7.00;;
6422;SDS011;3244;42.708;23.288;2023-04-06T00:16:57;6.70;;;6.20;;
6422;SDS011;3244;42.708;23.288;2023-04-06T00:19:26;7.22;;;6.45;;
6422;SDS011;3244;42.708;23.288;2023-04-06T00:21:52;7.55;;;6.85;;
6422;SDS011;3244;42.708;23.288;2023-04-06T00:24:19;7.10;;;6.40;;
6422;SDS011;3244;42.708;23.288;2023-04-06T00:26:46;7.63;;;6.93;;
6422;SDS011;3244;42.708;23.288;2023-04-06T00:29:13;8.25;;;7.45;;
6422;SDS011;3244;42.708;23.288;2023-04-06T00:31:40;8.13;;;7.43;;
6422;SDS011;3244;42.708;23.288;2023-04-06T00:34:06;8.13;;;7.43;;
6422;SDS011;3244;42.708;23.288;2023-04-06T00:36:34;8.38;;;7.03;;
6422;SDS011;3244;42.708;23.288;2023-04-06T00:39:01;7.40;;;6.73;;
6422;SDS011;3244;42.708;23.288;2023-04-06T00:41:28;8.00;;;7.35;;
6422;SDS011;3244;42.708;23.288;2023-04-06T00:43:55;9.52;;;7.35;;
6422;SDS011;3244;42.708;23.288;2023-04-06T00:46:22;7.70;;;7.10;;
6422;SDS011;3244;42.708;23.288;2023-04-06T00:48:50;7.80;;;7.10;;
6422;SDS011;3244;42.708;23.288;2023-04-06T00:51:16;7.97;;;7.27;;
6422;SDS011;3244;42.708;23.288;2023-04-06T00:53:45;7.60;;;6.90;;
6422;SDS011;3244;42.708;23.288;2023-04-06T00:56:11;7.70;;;7.07;;
6422;SDS011;3244;42.708;23.288;2023-04-06T00:58:38;8.13;;;7.50;;
6422;SDS011;3244;42.708;23.288;2023-04-06T01:01:05;8.57;;;7.17;;
6422;SDS011;3244;42.708;23.288;2023-04-06T01:03:32;7.95;;;7.28;;
6422;SDS011;3244;42.708;23.288;2023-04-06T01:05:59;8.10;;;7.40;;
6422;SDS011;3244;42.708;23.288;2023-04-06T01:08:26;7.97;;;7.22;;
6422;SDS011;3244;42.708;23.288;2023-04-06T01:10:55;7.40;;;6.80;;
6422;SDS011;3244;42.708;23.288;2023-04-06T01:13:22;7.82;;;7.07;;
6422;SDS011;3244;42.708;23.288;2023-04-06T01:15:48;8.77;;;7.38;;
6422;SDS011;3244;42.708;23.288;2023-04-06T01:18:15;8.38;;;7.68;;
6422;SDS011;3244;42.708;23.288;2023-04-06T01:20:42;9.88;;;7.80;;
6422;SDS011;3244;42.708;23.288;2023-04-06T01:23:11;8.80;;;8.10;;
6422;SDS011;3244;42.708;23.288;2023-04-06T01:25:37;8.63;;;7.77;;
6422;SDS011;3244;42.708;23.288;2023-04-06T01:28:04;8.77;;;7.93;;
6422;SDS011;3244;42.708;23.288;2023-04-06T01:30:31;11.32;;;9.02;;
6422;SDS011;3244;42.708;23.288;2023-04-06T01:32:58;9.35;;;8.35;;
6422;SDS011;3244;42.708;23.288;2023-04-06T01:35:27;9.55;;;8.70;;
6422;SDS011;3244;42.708;23.288;2023-04-06T01:37:54;9.13;;;8.23;;
6422;SDS011;3244;42.708;23.288;2023-04-06T01:40:22;9.18;;;8.35;;
6422;SDS011;3244;42.708;23.288;2023-04-06T01:42:49;9.40;;;8.43;;
6422;SDS011;3244;42.708;23.288;2023-04-06T01:45:16;9.25;;;8.45;;
6422;SDS011;3244;42.708;23.288;2023-04-06T01:47:42;10.70;;;8.68;;
6422;SDS011;3244;42.708;23.288;2023-04-06T01:50:09;9.07;;;8.25;;
6422;SDS011;3244;42.708;23.288;2023-04-06T01:52:36;9.30;;;8.40;;
6422;SDS011;3244;42.708;23.288;2023-04-06T01:55:03;10.27;;;8.98;;
6422;SDS011;3244;42.708;23.288;2023-04-06T01:57:32;9.73;;;8.82;;
6422;SDS011;3244;42.708;23.288;2023-04-06T02:00:00;10.70;;;8.60;;
6422;SDS011;3244;42.708;23.288;2023-04-06T02:02:26;10.00;;;8.57;;
6422;SDS011;3244;42.708;23.288;2023-04-06T02:04:53;9.70;;;8.55;;
6422;SDS011;3244;42.708;23.288;2023-04-06T02:07:20;9.45;;;8.60;;
6422;SDS011;3244;42.708;23.288;2023-04-06T02:09:46;9.77;;;8.77;;
6422;SDS011;3244;42.708;23.288;2023-04-06T02:12:13;9.43;;;8.60;;
6422;SDS011;3244;42.708;23.288;2023-04-06T02:14:42;9.43;;;8.52;;
6422;SDS011;3244;42.708;23.288;2023-04-06T02:17:08;9.38;;;8.48;;
6422;SDS011;3244;42.708;23.288;2023-04-06T02:19:35;10.40;;;8.90;;
6422;SDS011;3244;42.708;23.288;2023-04-06T02:22:02;9.45;;;8.45;;
6422;SDS011;3244;42.708;23.288;2023-04-06T02:24:28;9.68;;;8.80;;
6422;SDS011;3244;42.708;23.288;2023-04-06T02:26:55;9.60;;;8.70;;
6422;SDS011;3244;42.708;23.288;2023-04-06T02:29:22;10.63;;;9.30;;
6422;SDS011;3244;42.708;23.288;2023-04-06T02:31:50;10.52;;;8.50;;
6422;SDS011;3244;42.708;23.288;2023-04-06T02:34:17;9.45;;;8.55;;
6422;SDS011;3244;42.708;23.288;2023-04-06T02:36:44;11.80;;;9.13;;
6422;SDS011;3244;42.708;23.288;2023-04-06T02:39:12;9.27;;;8.38;;
6422;SDS011;3244;42.708;23.288;2023-04-06T02:41:40;8.85;;;8.02;;
6422;SDS011;3244;42.708;23.288;2023-04-06T02:44:07;9.15;;;8.25;;
6422;SDS011;3244;42.708;23.288;2023-04-06T02:46:35;9.95;;;8.98;;
6422;SDS011;3244;42.708;23.288;2023-04-06T02:49:03;11.55;;;9.20;;
6422;SDS011;3244;42.708;23.288;2023-04-06T02:51:29;8.82;;;8.00;;
6422;SDS011;3244;42.708;23.288;2023-04-06T02:53:56;9.05;;;8.15;;
6422;SDS011;3244;42.708;23.288;2023-04-06T02:56:23;10.65;;;8.50;;
6422;SDS011;3244;42.708;23.288;2023-04-06T02:58:50;9.07;;;8.27;;
6422;SDS011;3244;42.708;23.288;2023-04-06T03:01:16;8.73;;;8.00;;
6422;SDS011;3244;42.708;23.288;2023-04-06T03:03:43;9.17;;;8.33;;
6422;SDS011;3244;42.708;23.288;2023-04-06T03:06:12;8.17;;;7.60;;
6422;SDS011;3244;42.708;23.288;2023-04-06T03:08:38;7.13;;;6.53;;
6422;SDS011;3244;42.708;23.288;2023-04-06T03:11:05;9.95;;;7.07;;
6422;SDS011;3244;42.708;23.288;2023-04-06T03:13:32;7.10;;;6.45;;
6422;SDS011;3244;42.708;23.288;2023-04-06T03:15:58;7.20;;;6.70;;
6422;SDS011;3244;42.708;23.288;2023-04-06T03:18:25;7.68;;;7.00;;
6422;SDS011;3244;42.708;23.288;2023-04-06T03:20:52;7.53;;;6.90;;
6422;SDS011;3244;42.708;23.288;2023-04-06T03:23:21;7.25;;;6.65;;
6422;SDS011;3244;42.708;23.288;2023-04-06T03:25:48;7.30;;;6.60;;
6422;SDS011;3244;42.708;23.288;2023-04-06T03:28:15;7.07;;;6.38;;
6422;SDS011;3244;42.708;23.288;2023-04-06T03:30:42;12.52;;;6.70;;
6422;SDS011;3244;42.708;23.288;2023-04-06T03:33:08;7.35;;;6.65;;
6422;SDS011;3244;42.708;23.288;2023-04-06T03:35:35;6.85;;;6.25;;
6422;SDS011;3244;42.708;23.288;2023-04-06T03:38:02;7.82;;;6.90;;
6422;SDS011;3244;42.708;23.288;2023-04-06T03:40:30;9.63;;;7.60;;
6422;SDS011;3244;42.708;23.288;2023-04-06T03:42:57;11.15;;;7.93;;
6422;SDS011;3244;42.708;23.288;2023-04-06T03:45:24;10.43;;;8.63;;
6422;SDS011;3244;42.708;23.288;2023-04-06T03:47:50;13.77;;;8.68;;
6422;SDS011;3244;42.708;23.288;2023-04-06T03:50:17;10.23;;;9.20;;
6422;SDS011;3244;42.708;23.288;2023-04-06T03:52:44;10.23;;;9.15;;
6422;SDS011;3244;42.708;23.288;2023-04-06T03:55:11;9.52;;;8.50;;
6422;SDS011;3244;42.708;23.288;2023-04-06T03:57:39;9.98;;;8.95;;
6422;SDS011;3244;42.708;23.288;2023-04-06T04:00:07;10.30;;;9.30;;
6422;SDS011;3244;42.708;23.288;2023-04-06T04:02:34;11.30;;;10.20;;
6422;SDS011;3244;42.708;23.288;2023-04-06T04:05:01;10.77;;;9.70;;
6422;SDS011;3244;42.708;23.288;2023-04-06T04:07:28;11.95;;;9.80;;
6422;SDS011;3244;42.708;23.288;2023-04-06T04:09:55;15.27;;;10.63;;
6422;SDS011;3244;42.708;23.288;2023-04-06T04:12:22;11.75;;;9.82;;
6422;SDS011;3244;42.708;23.288;2023-04-06T04:14:50;12.38;;;11.18;;
6422;SDS011;3244;42.708;23.288;2023-04-06T04:17:17;14.45;;;10.55;;
6422;SDS011;3244;42.708;23.288;2023-04-06T04:19:43;12.88;;;11.32;;
6422;SDS011;3244;42.708;23.288;2023-04-06T04:22:10;10.30;;;9.40;;
6422;SDS011;3244;42.708;23.288;2023-04-06T04:24:37;10.00;;;8.98;;
6422;SDS011;3244;42.708;23.288;2023-04-06T04:27:04;11.20;;;10.10;;
6422;SDS011;3244;42.708;23.288;2023-04-06T04:29:31;11.13;;;10.02;;
6422;SDS011;3244;42.708;23.288;2023-04-06T04:31:59;13.23;;;10.13;;
6422;SDS011;3244;42.708;23.288;2023-04-06T04:34:25;14.45;;;10.50;;
6422;SDS011;3244;42.708;23.288;2023-04-06T04:36:53;15.10;;;10.35;;
6422;SDS011;3244;42.708;23.288;2023-04-06T04:39:19;18.25;;;10.00;;
6422;SDS011;3244;42.708;23.288;2023-04-06T04:41:46;12.20;;;10.90;;
6422;SDS011;3244;42.708;23.288;2023-04-06T04:44:13;12.68;;;11.38;;
6422;SDS011;3244;42.708;23.288;2023-04-06T04:46:40;10.75;;;9.70;;
6422;SDS011;3244;42.708;23.288;2023-04-06T04:49:08;14.98;;;10.40;;
6422;SDS011;3244;42.708;23.288;2023-04-06T04:51:35;10.32;;;9.25;;
6422;SDS011;3244;42.708;23.288;2023-04-06T04:54:02;8.65;;;7.50;;
6422;SDS011;3244;42.708;23.288;2023-04-06T04:56:29;8.45;;;7.55;;
6422;SDS011;3244;42.708;23.288;2023-04-06T04:58:56;9.45;;;8.55;;
6422;SDS011;3244;42.708;23.288;2023-04-06T05:01:23;8.60;;;7.75;;
6422;SDS011;3244;42.708;23.288;2023-04-06T05:03:50;9.93;;;7.15;;
6422;SDS011;3244;42.708;23.288;2023-04-06T05:06:18;9.18;;;8.23;;
6422;SDS011;3244;42.708;23.288;2023-04-06T05:08:45;13.05;;;8.80;;
6422;SDS011;3244;42.708;23.288;2023-04-06T05:11:12;8.48;;;7.78;;
6422;SDS011;3244;42.708;23.288;2023-04-06T05:13:38;9.45;;;8.55;;
6422;SDS011;3244;42.708;23.288;2023-04-06T05:16:05;9.10;;;8.05;;
6422;SDS011;3244;42.708;23.288;2023-04-06T05:18:32;20.45;;;14.70;;
6422;SDS011;3244;42.708;23.288;2023-04-06T05:20:59;12.20;;;10.18;;
6422;SDS011;3244;42.708;23.288;2023-04-06T05:23:27;10.15;;;7.93;;
6422;SDS011;3244;42.708;23.288;2023-04-06T05:25:54;15.55;;;8.93;;
6422;SDS011;3244;42.708;23.288;2023-04-06T05:28:20;9.27;;;8.45;;
6422;SDS011;3244;42.708;23.288;2023-04-06T05:30:48;10.02;;;8.82;;
6422;SDS011;3244;42.708;23.288;2023-04-06T05:33:14;10.15;;;9.20;;
6422;SDS011;3244;42.708;23.288;2023-04-06T05:35:41;10.55;;;9.45;;
6422;SDS011;3244;42.708;23.288;2023-04-06T05:38:08;10.88;;;9.75;;
6422;SDS011;3244;42.708;23.288;2023-04-06T05:40:37;10.45;;;9.25;;
6422;SDS011;3244;42.708;23.288;2023-04-06T05:43:06;11.25;;;9.77;;
6422;SDS011;3244;42.708;23.288;2023-04-06T05:45:33;13.75;;;9.90;;
6422;SDS011;3244;42.708;23.288;2023-04-06T05:48:00;15.93;;;11.13;;
6422;SDS011;3244;42.708;23.288;2023-04-06T05:50:27;12.18;;;9.77;;
6422;SDS011;3244;42.708;23.288;2023-04-06T05:52:54;11.40;;;10.23;;
6422;SDS011;3244;42.708;23.288;2023-04-06T05:55:20;12.65;;;10.38;;
6422;SDS011;3244;42.708;23.288;2023-04-06T05:57:49;15.00;;;10.68;;
6422;SDS011;3244;42.708;23.288;2023-04-06T06:00:15;13.63;;;10.48;;
6422;SDS011;3244;42.708;23.288;2023-04-06T06:02:42;16.48;;;10.40;;
6422;SDS011;3244;42.708;23.288;2023-04-06T06:05:09;13.75;;;10.20;;
6422;SDS011;3244;42.708;23.288;2023-04-06T06:07:36;15.68;;;12.18;;
6422;SDS011;3244;42.708;23.288;2023-04-06T06:10:03;12.77;;;10.40;;
6422;SDS011;3244;42.708;23.288;2023-04-06T06:12:30;12.30;;;9.18;;
6422;SDS011;3244;42.708;23.288;2023-04-06T06:14:58;11.30;;;9.52;;
6422;SDS011;3244;42.708;23.288;2023-04-06T06:17:25;10.68;;;9.57;;
6422;SDS011;3244;42.708;23.288;2023-04-06T06:19:52;10.45;;;9.32;;
6422;SDS011;3244;42.708;23.288;2023-04-06T06:22:19;12.25;;;10.32;;
6422;SDS011;3244;42.708;23.288;2023-04-06T06:24:45;11.55;;;9.55;;
6422;SDS011;3244;42.708;23.288;2023-04-06T06:27:12;15.07;;;10.55;;
6422;SDS011;3244;42.708;23.288;2023-04-06T06:29:39;10.48;;;9.07;;
6422;SDS011;3244;42.708;23.288;2023-04-06T06:32:07;15.20;;;10.98;;
6422;SDS011;3244;42.708;23.288;2023-04-06T06:34:35;10.43;;;9.35;;
6422;SDS011;3244;42.708;23.288;2023-04-06T06:37:02;14.50;;;8.73;;
6422;SDS011;3244;42.708;23.288;2023-04-06T06:39:29;11.82;;;9.30;;
6422;SDS011;3244;42.708;23.288;2023-04-06T06:41:55;10.57;;;9.52;;
6422;SDS011;3244;42.708;23.288;2023-04-06T06:44:22;13.48;;;10.60;;
6422;SDS011;3244;42.708;23.288;2023-04-06T06:46:50;14.88;;;11.13;;
6422;SDS011;3244;42.708;23.288;2023-04-06T06:49:18;15.52;;;12.93;;
6422;SDS011;3244;42.708;23.288;2023-04-06T06:51:45;16.35;;;10.45;;
6422;SDS011;3244;42.708;23.288;2023-04-06T06:54:12;16.38;;;10.68;;
6422;SDS011;3244;42.708;23.288;2023-04-06T06:56:39;10.57;;;9.07;;
6422;SDS011;3244;42.708;23.288;2023-04-06T06:59:05;12.45;;;9.40;;
6422;SDS011;3244;42.708;23.288;2023-04-06T07:01:32;11.00;;;8.90;;
6422;SDS011;3244;42.708;23.288;2023-04-06T07:03:59;11.63;;;8.68;;
6422;SDS011;3244;42.708;23.288;2023-04-06T07:06:28;11.75;;;10.10;;
6422;SDS011;3244;42.708;23.288;2023-04-06T07:08:54;14.88;;;9.35;;
6422;SDS011;3244;42.708;23.288;2023-04-06T07:11:21;9.90;;;8.77;;
6422;SDS011;3244;42.708;23.288;2023-04-06T07:13:48;9.77;;;8.85;;
6422;SDS011;3244;42.708;23.288;2023-04-06T07:16:14;11.80;;;9.02;;
6422;SDS011;3244;42.708;23.288;2023-04-06T07:18:41;11.25;;;9.00;;
6422;SDS011;3244;42.708;23.288;2023-04-06T07:21:08;13.77;;;10.27;;
6422;SDS011;3244;42.708;23.288;2023-04-06T07:23:36;11.18;;;9.60;;
6422;SDS011;3244;42.708;23.288;2023-04-06T07:26:03;13.98;;;10.68;;
6422;SDS011;3244;42.708;23.288;2023-04-06T07:28:30;19.13;;;10.90;;
6422;SDS011;3244;42.708;23.288;2023-04-06T07:30:56;23.92;;;11.65;;
6422;SDS011;3244;42.708;23.288;2023-04-06T07:33:23;29.00;;;11.65;;
6422;SDS011;3244;42.708;23.288;2023-04-06T07:35:54;14.35;;;10.20;;
6422;SDS011;3244;42.708;23.288;2023-04-06T07:38:21;16.38;;;10.05;;
6422;SDS011;3244;42.708;23.288;2023-04-06T07:40:49;12.35;;;9.73;;
6422;SDS011;3244;42.708;23.288;2023-04-06T07:43:16;11.80;;;8.65;;
6422;SDS011;3244;42.708;23.288;2023-04-06T07:45:43;11.20;;;9.40;;
6422;SDS011;3244;42.708;23.288;2023-04-06T07:48:10;10.23;;;8.15;;
6422;SDS011;3244;42.708;23.288;2023-04-06T07:50:37;11.88;;;9.30;;
6422;SDS011;3244;42.708;23.288;2023-04-06T07:53:04;12.77;;;8.70;;
6422;SDS011;3244;42.708;23.288;2023-04-06T07:55:31;9.68;;;8.60;;
6422;SDS011;3244;42.708;23.288;2023-04-06T07:57:59;11.00;;;9.05;;
6422;SDS011;3244;42.708;23.288;2023-04-06T08:00:26;8.90;;;8.10;;
6422;SDS011;3244;42.708;23.288;2023-04-06T08:02:53;8.60;;;7.80;;
6422;SDS011;3244;42.708;23.288;2023-04-06T08:05:20;11.27;;;7.43;;
6422;SDS011;3244;42.708;23.288;2023-04-06T08:07:46;8.30;;;7.40;;
6422;SDS011;3244;42.708;23.288;2023-04-06T08:10:13;7.78;;;6.97;;
6422;SDS011;3244;42.708;23.288;2023-04-06T08:12:40;9.63;;;7.03;;
6422;SDS011;3244;42.708;23.288;2023-04-06T08:15:08;7.50;;;6.93;;
6422;SDS011;3244;42.708;23.288;2023-04-06T08:17:35;9.43;;;7.65;;
6422;SDS011;3244;42.708;23.288;2023-04-06T08:20:02;8.68;;;7.93;;
6422;SDS011;3244;42.708;23.288;2023-04-06T08:22:29;10.63;;;7.03;;
6422;SDS011;3244;42.708;23.288;2023-04-06T08:24:56;8.52;;;7.60;;
6422;SDS011;3244;42.708;23.288;2023-04-06T08:27:23;7.60;;;7.00;;
6422;SDS011;3244;42.708;23.288;2023-04-06T08:29:49;6.80;;;6.25;;
6422;SDS011;3244;42.708;23.288;2023-04-06T08:32:18;7.10;;;6.60;;
6422;SDS011;3244;42.708;23.288;2023-04-06T08:34:45;7.53;;;7.03;;
6422;SDS011;3244;42.708;23.288;2023-04-06T08:37:12;8.13;;;7.50;;
6422;SDS011;3244;42.708;23.288;2023-04-06T08:39:39;7.28;;;6.70;;
6422;SDS011;3244;42.708;23.288;2023-04-06T08:42:10;11.43;;;7.47;;
6422;SDS011;3244;42.708;23.288;2023-04-06T08:44:39;7.65;;;7.03;;
6422;SDS011;3244;42.708;23.288;2023-04-06T08:47:07;7.88;;;7.28;;
6422;SDS011;3244;42.708;23.288;2023-04-06T08:49:35;7.45;;;6.68;;
6422;SDS011;3244;42.708;23.288;2023-04-06T08:52:05;7.95;;;7.25;;
6422;SDS011;3244;42.708;23.288;2023-04-06T08:54:33;11.55;;;7.97;;
6422;SDS011;3244;42.708;23.288;2023-04-06T08:56:59;15.30;;;8.77;;
6422;SDS011;3244;42.708;23.288;2023-04-06T08:59:28;9.95;;;9.02;;
6422;SDS011;3244;42.708;23.288;2023-04-06T09:01:55;7.97;;;7.30;;
6422;SDS011;3244;42.708;23.288;2023-04-06T09:04:22;7.10;;;6.57;;
6422;SDS011;3244;42.708;23.288;2023-04-06T09:06:50;7.97;;;7.03;;
6422;SDS011;3244;42.708;23.288;2023-04-06T09:09:17;7.35;;;6.70;;
6422;SDS011;3244;42.708;23.288;2023-04-06T09:11:45;9.15;;;8.30;;
6422;SDS011;3244;42.708;23.288;2023-04-06T09:14:13;8.45;;;7.63;;
6422;SDS011;3244;42.708;23.288;2023-04-06T09:16:42;8.27;;;7.45;;
6422;SDS011;3244;42.708;23.288;2023-04-06T09:19:10;8.30;;;7.43;;
6422;SDS011;3244;42.708;23.288;2023-04-06T09:21:38;8.82;;;7.18;;
6422;SDS011;3244;42.708;23.288;2023-04-06T09:24:07;12.68;;;7.93;;
6422;SDS011;3244;42.708;23.288;2023-04-06T09:26:44;10.30;;;8.23;;
6422;SDS011;3244;42.708;23.288;2023-04-06T09:29:21;12.05;;;7.60;;
6422;SDS011;3244;42.708;23.288;2023-04-06T09:31:49;7.43;;;6.75;;
6422;SDS011;3244;42.708;23.288;2023-04-06T09:34:20;9.07;;;7.93;;
6422;SDS011;3244;42.708;23.288;2023-04-06T09:36:48;8.30;;;7.57;;
6422;SDS011;3244;42.708;23.288;2023-04-06T09:39:19;9.57;;;7.72;;
6422;SDS011;3244;42.708;23.288;2023-04-06T09:41:49;8.00;;;7.45;;
6422;SDS011;3244;42.708;23.288;2023-04-06T09:44:16;8.40;;;7.70;;
6422;SDS011;3244;42.708;23.288;2023-04-06T09:46:44;8.07;;;7.25;;
6422;SDS011;3244;42.708;23.288;2023-04-06T09:49:12;8.88;;;7.72;;
6422;SDS011;3244;42.708;23.288;2023-04-06T09:51:40;9.43;;;7.35;;
6422;SDS011;3244;42.708;23.288;2023-04-06T09:54:11;8.10;;;7.13;;
6422;SDS011;3244;42.708;23.288;2023-04-06T09:56:45;7.72;;;6.93;;
6422;SDS011;3244;42.708;23.288;2023-04-06T09:59:13;10.18;;;7.97;;
6422;SDS011;3244;42.708;23.288;2023-04-06T10:01:42;7.43;;;6.75;;
6422;SDS011;3244;42.708;23.288;2023-04-06T10:04:13;7.70;;;6.93;;
6422;SDS011;3244;42.708;23.288;2023-04-06T10:06:51;7.95;;;6.82;;
6422;SDS011;3244;42.708;23.288;2023-04-06T10:09:18;7.40;;;6.80;;
6422;SDS011;3244;42.708;23.288;2023-04-06T10:11:53;8.45;;;7.05;;
6422;SDS011;3244;42.708;23.288;2023-04-06T10:14:21;8.73;;;7.93;;
6422;SDS011;3244;42.708;23.288;2023-04-06T10:16:48;7.63;;;6.97;;
6422;SDS011;3244;42.708;23.288;2023-04-06T10:19:22;8.10;;;7.30;;
6422;SDS011;3244;42.708;23.288;2023-04-06T10:21:53;7.13;;;6.63;;
6422;SDS011;3244;42.708;23.288;2023-04-06T10:24:23;7.22;;;6.53;;
6422;SDS011;3244;42.708;23.288;2023-04-06T10:27:00;6.72;;;6.22;;
6422;SDS011;3244;42.708;23.288;2023-04-06T10:29:28;6.25;;;5.85;;
6422;SDS011;3244;42.708;23.288;2023-04-06T10:31:54;7.53;;;6.93;;
6422;SDS011;3244;42.708;23.288;2023-04-06T10:34:21;6.47;;;5.88;;
6422;SDS011;3244;42.708;23.288;2023-04-06T10:36:48;7.50;;;6.80;;
6422;SDS011;3244;42.708;23.288;2023-04-06T10:39:15;7.80;;;7.20;;
6422;SDS011;3244;42.708;23.288;2023-04-06T10:41:52;7.05;;;6.60;;
6422;SDS011;3244;42.708;23.288;2023-04-06T10:44:21;8.02;;;7.35;;
6422;SDS011;3244;42.708;23.288;2023-04-06T10:46:55;8.48;;;7.78;;
6422;SDS011;3244;42.708;23.288;2023-04-06T10:49:22;6.82;;;6.32;;
6422;SDS011;3244;42.708;23.288;2023-04-06T10:51:51;8.23;;;7.55;;
6422;SDS011;3244;42.708;23.288;2023-04-06T10:54:20;8.73;;;7.93;;
6422;SDS011;3244;42.708;23.288;2023-04-06T10:56:48;7.15;;;6.55;;
6422;SDS011;3244;42.708;23.288;2023-04-06T10:59:18;6.25;;;5.75;;
6422;SDS011;3244;42.708;23.288;2023-04-06T11:01:47;8.05;;;7.45;;
6422;SDS011;3244;42.708;23.288;2023-04-06T11:04:15;6.90;;;6.30;;
6422;SDS011;3244;42.708;23.288;2023-04-06T11:06:45;7.18;;;6.57;;
6422;SDS011;3244;42.708;23.288;2023-04-06T11:09:22;6.95;;;6.35;;
6422;SDS011;3244;42.708;23.288;2023-04-06T11:11:51;8.57;;;6.35;;
6422;SDS011;3244;42.708;23.288;2023-04-06T11:14:17;7.18;;;6.57;;
6422;SDS011;3244;42.708;23.288;2023-04-06T11:16:46;7.38;;;6.65;;
6422;SDS011;3244;42.708;23.288;2023-04-06T11:19:14;7.30;;;6.05;;
6422;SDS011;3244;42.708;23.288;2023-04-06T11:21:42;7.95;;;6.60;;
6422;SDS011;3244;42.708;23.288;2023-04-06T11:24:13;6.45;;;5.90;;
6422;SDS011;3244;42.708;23.288;2023-04-06T11:26:41;7.07;;;6.47;;
6422;SDS011;3244;42.708;23.288;2023-04-06T11:29:11;6.85;;;6.30;;
6422;SDS011;3244;42.708;23.288;2023-04-06T11:31:41;7.25;;;6.65;;
6422;SDS011;3244;42.708;23.288;2023-04-06T11:34:15;11.02;;;7.55;;
6422;SDS011;3244;42.708;23.288;2023-04-06T11:36:43;8.10;;;7.30;;
6422;SDS011;3244;42.708;23.288;2023-04-06T11:39:11;6.35;;;5.90;;
6422;SDS011;3244;42.708;23.288;2023-04-06T11:41:38;8.90;;;7.60;;
6422;SDS011;3244;42.708;23.288;2023-04-06T11:44:06;7.60;;;7.03;;
6422;SDS011;3244;42.708;23.288;2023-04-06T11:46:33;10.05;;;7.72;;
6422;SDS011;3244;42.708;23.288;2023-04-06T11:49:00;10.98;;;7.78;;
6422;SDS011;3244;42.708;23.288;2023-04-06T11:51:28;7.32;;;6.63;;
6422;SDS011;3244;42.708;23.288;2023-04-06T11:53:55;6.97;;;6.38;;
6422;SDS011;3244;42.708;23.288;2023-04-06T11:56:23;7.57;;;7.07;;
6422;SDS011;3244;42.708;23.288;2023-04-06T11:58:51;11.02;;;7.50;;
6422;SDS011;3244;42.708;23.288;2023-04-06T12:01:18;7.20;;;6.03;;
6422;SDS011;3244;42.708;23.288;2023-04-06T12:03:45;7.40;;;6.70;;
6422;SDS011;3244;42.708;23.288;2023-04-06T12:06:11;8.13;;;7.32;;
6422;SDS011;3244;42.708;23.288;2023-04-06T12:08:40;9.48;;;7.65;;
6422;SDS011;3244;42.708;23.288;2023-04-06T12:11:06;7.82;;;7.22;;
6422;SDS011;3244;42.708;23.288;2023-04-06T12:13:33;6.82;;;6.32;;
6422;SDS011;3244;42.708;23.288;2023-04-06T12:16:00;6.85;;;6.25;;
6422;SDS011;3244;42.708;23.288;2023-04-06T12:18:27;8.23;;;7.38;;
6422;SDS011;3244;42.708;23.288;2023-04-06T12:20:54;7.78;;;6.28;;
6422;SDS011;3244;42.708;23.288;2023-04-06T12:23:20;11.07;;;6.80;;
6422;SDS011;3244;42.708;23.288;2023-04-06T12:25:48;6.63;;;5.90;;
6422;SDS011;3244;42.708;23.288;2023-04-06T12:28:15;6.45;;;5.85;;
6422;SDS011;3244;42.708;23.288;2023-04-06T12:30:42;7.20;;;5.63;;
6422;SDS011;3244;42.708;23.288;2023-04-06T12:33:09;7.40;;;5.72;;
6422;SDS011;3244;42.708;23.288;2023-04-06T12:35:36;6.60;;;5.95;;
6422;SDS011;3244;42.708;23.288;2023-04-06T12:38:03;6.45;;;5.13;;
6422;SDS011;3244;42.708;23.288;2023-04-06T12:40:31;8.50;;;7.38;;
6422;SDS011;3244;42.708;23.288;2023-04-06T12:43:04;6.13;;;5.63;;
6422;SDS011;3244;42.708;23.288;2023-04-06T12:45:31;11.27;;;6.40;;
6422;SDS011;3244;42.708;23.288;2023-04-06T12:47:58;8.57;;;6.55;;
6422;SDS011;3244;42.708;23.288;2023-04-06T12:50:25;6.38;;;5.90;;
6422;SDS011;3244;42.708;23.288;2023-04-06T12:52:52;21.63;;;7.30;;
6422;SDS011;3244;42.708;23.288;2023-04-06T12:55:19;9.65;;;6.32;;
6422;SDS011;3244;42.708;23.288;2023-04-06T12:57:46;7.90;;;7.28;;
6422;SDS011;3244;42.708;23.288;2023-04-06T13:00:15;12.48;;;6.55;;
6422;SDS011;3244;42.708;23.288;2023-04-06T13:02:43;9.57;;;7.18;;
6422;SDS011;3244;42.708;23.288;2023-04-06T13:05:12;7.07;;;6.38;;
6422;SDS011;3244;42.708;23.288;2023-04-06T13:07:39;7.55;;;6.82;;
6422;SDS011;3244;42.708;23.288;2023-04-06T13:10:07;8.82;;;6.85;;
6422;SDS011;3244;42.708;23.288;2023-04-06T13:12:34;8.52;;;7.43;;
6422;SDS011;3244;42.708;23.288;2023-04-06T13:15:01;7.05;;;6.35;;
6422;SDS011;3244;42.708;23.288;2023-04-06T13:17:30;9.73;;;7.38;;
6422;SDS011;3244;42.708;23.288;2023-04-06T13:19:56;9.05;;;7.75;;
6422;SDS011;3244;42.708;23.288;2023-04-06T13:22:23;7.38;;;6.72;;
6422;SDS011;3244;42.708;23.288;2023-04-06T13:24:50;7.35;;;6.55;;
6422;SDS011;3244;42.708;23.288;2023-04-06T13:27:17;6.82;;;6.32;;
6422;SDS011;3244;42.708;23.288;2023-04-06T13:29:44;6.50;;;5.90;;
6422;SDS011;3244;42.708;23.288;2023-04-06T13:32:11;6.63;;;5.95;;
6422;SDS011;3244;42.708;23.288;2023-04-06T13:34:39;7.57;;;5.05;;
6422;SDS011;3244;42.708;23.288;2023-04-06T13:37:09;6.47;;;5.95;;
6422;SDS011;3244;42.708;23.288;2023-04-06T13:39:37;7.63;;;5.25;;
6422;SDS011;3244;42.708;23.288;2023-04-06T13:42:04;6.60;;;6.00;;
6422;SDS011;3244;42.708;23.288;2023-04-06T13:44:31;6.10;;;5.60;;
6422;SDS011;3244;42.708;23.288;2023-04-06T13:46:58;6.85;;;6.15;;
6422;SDS011;3244;42.708;23.288;2023-04-06T13:49:25;6.57;;;6.05;;
6422;SDS011;3244;42.708;23.288;2023-04-06T13:51:53;12.02;;;7.72;;
6422;SDS011;3244;42.708;23.288;2023-04-06T13:54:20;5.82;;;5.35;;
6422;SDS011;3244;42.708;23.288;2023-04-06T13:56:47;6.50;;;6.00;;
6422;SDS011;3244;42.708;23.288;2023-04-06T13:59:14;5.75;;;5.35;;
6422;SDS011;3244;42.708;23.288;2023-04-06T14:01:41;5.82;;;5.25;;
6422;SDS011;3244;42.708;23.288;2023-04-06T14:04:08;12.20;;;5.65;;
6422;SDS011;3244;42.708;23.288;2023-04-06T14:06:34;5.93;;;5.53;;
6422;SDS011;3244;42.708;23.288;2023-04-06T14:09:03;5.82;;;5.43;;
6422;SDS011;3244;42.708;23.288;2023-04-06T14:11:30;7.03;;;6.20;;
6422;SDS011;3244;42.708;23.288;2023-04-06T14:13:56;14.45;;;5.57;;
6422;SDS011;3244;42.708;23.288;2023-04-06T14:16:23;7.45;;;6.65;;
6422;SDS011;3244;42.708;23.288;2023-04-06T14:18:50;6.07;;;5.47;;
6422;SDS011;3244;42.708;23.288;2023-04-06T14:21:17;6.10;;;5.53;;
6422;SDS011;3244;42.708;23.288;2023-04-06T14:23:45;8.55;;;6.70;;
6422;SDS011;3244;42.708;23.288;2023-04-06T14:26:13;8.85;;;5.93;;
6422;SDS011;3244;42.708;23.288;2023-04-06T14:28:41;6.82;;;6.07;;
6422;SDS011;3244;42.708;23.288;2023-04-06T14:31:11;7.53;;;6.30;;
6422;SDS011;3244;42.708;23.288;2023-04-06T14:33:40;6.72;;;6.13;;
6422;SDS011;3244;42.708;23.288;2023-04-06T14:36:07;7.15;;;6.32;;
6422;SDS011;3244;42.708;23.288;2023-04-06T14:38:35;7.88;;;7.18;;
6422;SDS011;3244;42.708;23.288;2023-04-06T14:41:02;9.27;;;7.28;;
6422;SDS011;3244;42.708;23.288;2023-04-06T14:43:30;9.23;;;7.55;;
6422;SDS011;3244;42.708;23.288;2023-04-06T14:45:59;13.20;;;7.97;;
6422;SDS011;3244;42.708;23.288;2023-04-06T14:48:26;8.13;;;7.28;;
6422;SDS011;3244;42.708;23.288;2023-04-06T14:50:53;11.23;;;7.82;;
6422;SDS011;3244;42.708;23.288;2023-04-06T14:53:21;11.50;;;8.95;;
6422;SDS011;3244;42.708;23.288;2023-04-06T14:55:48;13.68;;;9.73;;
6422;SDS011;3244;42.708;23.288;2023-04-06T14:58:16;7.72;;;7.10;;